Time;durP1;ratioP1;P1;durP2;ratioP2;P2;SDS_P1;SDS_P2;PMS_P1;PMS_P2;Temp;Humidity;BMP_temperature;BMP_pressure;BME280_temperature;BME280_humidity;BME280_pressure;Samples;Min_cycle;Max_cycle;Signal;HPM_P1;HPM_P2
2022/12/31 00:00:37;;;;;;;14.32;5.22;;;;;;;11.34;100.00;100160.44;5082999;28;20168;-76
2022/12/31 00:03:06;;;;;;;13.48;4.95;;;;;;;11.36;100.00;100155.13;5082328;28;20929;-77
2022/12/31 00:05:33;;;;;;;14.68;5.15;;;;;;;11.39;100.00;100159.50;5064851;28;20029;-76
2022/12/31 00:07:58;;;;;;;15.23;5.38;;;;;;;11.39;100.00;100140.97;5083065;28;20512;-77
2022/12/31 00:10:24;;;;;;;14.57;5.00;;;;;;;11.40;100.00;100148.91;5082118;28;20044;-77
2022/12/31 00:12:49;;;;;;;13.82;4.88;;;;;;;11.42;100.00;100147.13;5084012;28;20047;-77
2022/12/31 00:15:15;;;;;;;12.65;4.90;;;;;;;11.42;100.00;100163.00;5081382;28;20037;-77
2022/12/31 00:17:40;;;;;;;15.50;5.43;;;;;;;11.42;100.00;100155.06;5083990;28;20048;-77
2022/12/31 00:20:06;;;;;;;14.65;5.13;;;;;;;11.41;100.00;100158.59;5081807;28;20086;-77
2022/12/31 00:22:31;;;;;;;14.25;5.20;;;;;;;11.40;100.00;100151.56;5083032;28;20468;-77
2022/12/31 00:24:57;;;;;;;15.07;5.15;;;;;;;11.44;100.00;100157.69;5082828;28;20035;-77
2022/12/31 00:27:22;;;;;;;13.25;4.90;;;;;;;11.44;100.00;100165.63;5081659;28;20482;-76
2022/12/31 00:29:48;;;;;;;14.25;5.30;;;;;;;11.44;100.00;100160.34;5084134;28;20024;-77
2022/12/31 00:32:13;;;;;;;17.25;5.70;;;;;;;11.44;100.00;100149.75;5081161;28;20028;-77
2022/12/31 00:34:38;;;;;;;15.68;5.57;;;;;;;11.42;100.00;100144.47;5088042;28;20036;-77
2022/12/31 00:37:04;;;;;;;16.23;5.53;;;;;;;11.46;100.00;100135.63;5085922;28;20111;-77
2022/12/31 00:39:29;;;;;;;16.85;6.03;;;;;;;11.43;100.00;100135.66;5068295;28;20178;-77
2022/12/31 00:41:54;;;;;;;16.60;5.72;;;;;;;11.42;100.00;100133.88;5087686;28;20036;-77
2022/12/31 00:44:20;;;;;;;17.83;6.00;;;;;;;11.44;100.00;100136.50;5067019;28;20394;-77
2022/12/31 00:46:45;;;;;;;15.95;5.78;;;;;;;11.44;100.00;100147.97;5088223;28;20024;-77
2022/12/31 00:49:10;;;;;;;16.23;5.75;;;;;;;11.43;100.00;100140.94;5085072;28;20028;-76
2022/12/31 00:51:36;;;;;;;16.60;5.60;;;;;;;11.43;100.00;100130.34;5069182;28;20094;-76
2022/12/31 00:54:01;;;;;;;16.67;5.07;;;;;;;11.43;100.00;100138.28;5086291;28;20051;-75
2022/12/31 00:56:29;;;;;;;14.35;4.88;;;;;;;11.41;100.00;100125.97;5085993;28;20040;-79
2022/12/31 00:58:54;;;;;;;12.43;4.25;;;;;;;11.38;100.00;100121.56;5087018;28;20028;-77
2022/12/31 01:01:28;;;;;;;12.00;4.00;;;;;;;11.35;100.00;100132.19;5085137;28;20036;-75
2022/12/31 01:03:59;;;;;;;13.02;4.18;;;;;;;11.40;100.00;100119.81;5087038;28;20106;-77
2022/12/31 01:06:25;;;;;;;11.20;4.00;;;;;;;11.39;100.00;100118.03;5084969;28;20044;-75
2022/12/31 01:08:51;;;;;;;9.88;3.88;;;;;;;11.39;100.00;100130.38;5087418;28;20370;-77
2022/12/31 01:11:18;;;;;;;12.13;3.97;;;;;;;11.37;100.00;100126.88;5084416;28;20041;-82
2022/12/31 01:13:45;;;;;;;10.88;3.90;;;;;;;11.36;100.00;100115.44;5080380;28;20035;-76
2022/12/31 01:16:13;;;;;;;10.32;3.50;;;;;;;11.36;100.00;100111.88;5087319;28;20024;-75
2022/12/31 01:18:39;;;;;;;10.60;3.47;;;;;;;11.35;100.00;100108.38;5084513;28;20391;-77
2022/12/31 01:21:07;;;;;;;10.65;3.20;;;;;;;11.34;100.00;100104.88;5086351;28;20032;-75
2022/12/31 01:23:33;;;;;;;8.10;3.30;;;;;;;11.32;100.00;100114.56;5085331;28;20036;-78
2022/12/31 01:26:01;;;;;;;7.82;3.13;;;;;;;11.29;100.00;100116.38;5085394;28;20028;-74
2022/12/31 01:28:27;;;;;;;8.73;3.10;;;;;;;11.24;100.00;100124.38;5086126;28;20032;-73
2022/12/31 01:30:52;;;;;;;6.75;2.92;;;;;;;11.19;100.00;100131.47;5084459;28;20024;-75
2022/12/31 01:33:18;;;;;;;8.55;3.20;;;;;;;11.17;100.00;100130.63;5087471;28;20051;-75
2022/12/31 01:35:43;;;;;;;7.22;3.00;;;;;;;11.18;100.00;100126.19;5079755;28;20039;-75
2022/12/31 01:38:08;;;;;;;4.68;2.80;;;;;;;11.13;100.00;100134.19;5086562;28;20118;-77
2022/12/31 01:40:39;;;;;;;7.57;2.97;;;;;;;11.12;100.00;100130.63;5085094;28;20020;-75
2022/12/31 01:43:19;;;;;;;7.45;2.90;;;;;;;11.07;100.00;100137.75;5085797;28;20028;-74
2022/12/31 01:45:53;;;;;;;5.32;2.80;;;;;;;11.07;100.00;100132.47;5078643;28;20029;-75
2022/12/31 01:48:24;;;;;;;7.65;3.00;;;;;;;11.06;100.00;100145.69;5095660;28;20429;-77
2022/12/31 01:50:50;;;;;;;5.28;2.72;;;;;;;11.06;100.00;100161.56;5087061;28;20092;-75
2022/12/31 01:53:17;;;;;;;10.00;3.00;;;;;;;11.05;100.00;100170.38;5083434;28;20025;-75
2022/12/31 01:55:51;;;;;;;4.38;2.70;;;;;;;11.09;100.00;100196.78;5086699;28;20032;-74
2022/12/31 01:58:21;;;;;;;8.05;3.20;;;;;;;11.10;100.00;100206.50;5079564;28;20146;-75
2022/12/31 02:00:46;;;;;;;8.75;3.35;;;;;;;11.12;100.00;100193.25;5079767;28;20020;-76
2022/12/31 02:03:12;;;;;;;10.20;3.50;;;;;;;11.08;100.00;100154.47;5086321;28;20057;-74
2022/12/31 02:05:53;;;;;;;9.50;3.95;;;;;;;11.07;100.00;100150.09;5084087;28;20123;-75
2022/12/31 02:08:20;;;;;;;8.90;3.60;;;;;;;11.06;100.00;100156.28;5079931;28;20024;-79
2022/12/31 02:10:46;;;;;;;9.75;3.78;;;;;;;11.05;100.00;100160.66;5086850;28;20047;-75
2022/12/31 02:13:12;;;;;;;11.93;4.03;;;;;;;11.03;100.00;100162.47;5083322;28;20117;-74
2022/12/31 02:15:51;;;;;;;12.25;4.05;;;;;;;11.02;100.00;100160.69;5085664;28;20033;-75
2022/12/31 02:18:19;;;;;;;12.00;4.30;;;;;;;11.08;100.00;100168.59;5079527;28;20059;-75
2022/12/31 02:20:57;;;;;;;13.52;4.53;;;;;;;11.04;100.00;100181.84;5078897;28;20044;-75
2022/12/31 02:23:29;;;;;;;14.15;4.97;;;;;;;11.05;100.00;100192.41;5080494;28;20449;-75
2022/12/31 02:26:31;;;;;;;14.32;4.95;;;;;;;11.02;100.00;100195.09;5067481;28;20039;-75
2022/12/31 02:29:15;;;;;;;15.35;5.07;;;;;;;11.06;100.00;100202.09;5081556;28;20475;-75
2022/12/31 02:31:56;;;;;;;16.15;5.40;;;;;;;11.05;100.00;100197.69;5083201;28;20071;-75
2022/12/31 02:34:44;;;;;;;17.27;5.30;;;;;;;11.00;100.00;100199.53;5079982;28;20540;-74
2022/12/31 02:37:13;;;;;;;18.42;6.13;;;;;;;11.02;100.00;100202.16;5082982;28;20033;-74
2022/12/31 02:39:40;;;;;;;17.95;5.80;;;;;;;11.00;100.00;100196.88;5085457;28;20040;-74
2022/12/31 02:42:06;;;;;;;17.77;6.05;;;;;;;11.02;100.00;100205.66;5083716;28;20069;-74
2022/12/31 02:44:34;;;;;;;18.20;6.05;;;;;;;11.03;100.00;100212.72;5084112;28;20487;-75
2022/12/31 02:47:07;;;;;;;18.35;6.10;;;;;;;11.05;100.00;100208.28;5084283;28;20031;-74
2022/12/31 02:49:53;;;;;;;18.20;6.10;;;;;;;11.05;100.00;100223.28;5084713;28;20082;-74
2022/12/31 02:52:47;;;;;;;18.80;6.63;;;;;;;11.03;100.00;100194.19;5078872;28;20063;-79
2022/12/31 02:55:34;;;;;;;18.10;6.38;;;;;;;10.96;100.00;100203.06;5082107;28;20025;-73
2022/12/31 02:58:20;;;;;;;17.40;5.80;;;;;;;10.93;100.00;100188.09;5081689;28;20045;-75
2022/12/31 03:03:37;;;;;;;18.67;6.10;;;;;;;10.85;100.00;100197.88;5083559;28;20124;-74
2022/12/31 03:06:04;;;;;;;18.42;6.68;;;;;;;10.86;100.00;100196.97;5065763;28;20476;-77
2022/12/31 03:08:30;;;;;;;19.10;6.70;;;;;;;10.85;100.00;100189.03;5083506;28;20034;-78
2022/12/31 03:10:55;;;;;;;19.33;6.75;;;;;;;10.84;100.00;100187.31;5084596;28;20455;-73
2022/12/31 03:13:22;;;;;;;19.58;6.63;;;;;;;10.85;100.00;100178.47;5082344;28;20020;-74
2022/12/31 03:15:48;;;;;;;18.73;6.55;;;;;;;10.85;100.00;100184.66;5085480;28;20103;-75
2022/12/31 03:22:26;;;;;;;17.85;5.63;;;;;;;10.87;100.00;100171.41;5082130;28;20071;-73
2022/12/31 03:26:39;;;;;;;18.55;5.50;;;;;;;10.83;100.00;100149.41;5082532;28;20146;-75
2022/12/31 03:29:05;;;;;;;17.92;5.47;;;;;;;10.82;100.00;100161.75;5083959;28;20503;-75
2022/12/31 03:31:30;;;;;;;17.48;4.97;;;;;;;10.85;100.00;100162.59;5083643;28;20363;-75
2022/12/31 03:33:55;;;;;;;14.13;4.20;;;;;;;10.87;100.00;100160.84;5082303;28;20391;-75
2022/12/31 03:36:21;;;;;;;14.52;3.95;;;;;;;10.86;100.00;100156.44;5084732;28;20386;-76
2022/12/31 03:38:46;;;;;;;13.30;3.97;;;;;;;10.88;100.00;100146.72;5081655;28;20051;-75
2022/12/31 03:41:11;;;;;;;14.73;4.20;;;;;;;10.86;100.00;100144.09;5084326;28;20489;-77
2022/12/31 03:43:37;;;;;;;15.82;4.40;;;;;;;10.88;100.00;100138.78;5082827;28;20492;-75
2022/12/31 03:46:02;;;;;;;16.10;4.53;;;;;;;10.86;100.00;100136.16;5083161;28;20546;-76
2022/12/31 03:48:28;;;;;;;14.57;4.10;;;;;;;10.90;100.00;100142.31;5083539;28;20030;-75
2022/12/31 03:50:53;;;;;;;14.32;4.10;;;;;;;10.87;100.00;100139.69;5081852;28;20036;-76
2022/12/31 03:53:19;;;;;;;13.38;3.92;;;;;;;10.87;100.00;100135.28;5084652;28;20022;-75
2022/12/31 03:55:44;;;;;;;13.30;3.78;;;;;;;10.88;100.00;100133.50;5081234;28;20024;-76
2022/12/31 03:58:09;;;;;;;13.40;3.92;;;;;;;10.85;100.00;100136.16;5084029;28;20032;-75
2022/12/31 04:00:35;;;;;;;13.02;3.90;;;;;;;10.87;100.00;100126.47;5082697;28;20123;-76
2022/12/31 04:03:00;;;;;;;13.68;4.10;;;;;;;10.85;100.00;100125.59;5082499;28;20099;-75
2022/12/31 04:05:26;;;;;;;11.85;3.65;;;;;;;10.86;100.00;100135.28;5065822;28;20028;-75
2022/12/31 04:07:51;;;;;;;11.38;3.53;;;;;;;10.87;100.00;100134.41;5080583;28;20028;-75
2022/12/31 04:10:18;;;;;;;11.02;3.40;;;;;;;10.87;100.00;100123.81;5084536;28;20032;-75
2022/12/31 04:12:44;;;;;;;9.70;3.38;;;;;;;10.90;100.00;100123.78;5081248;28;20090;-76
2022/12/31 04:15:15;;;;;;;9.32;3.20;;;;;;;10.97;100.00;100125.50;5083628;28;20025;-75
2022/12/31 04:17:40;;;;;;;10.07;3.33;;;;;;;11.05;100.00;100128.06;5081481;28;20112;-75
2022/12/31 04:20:06;;;;;;;8.98;3.30;;;;;;;11.09;100.00;100125.38;5083120;28;20123;-75
2022/12/31 04:22:31;;;;;;;12.10;3.40;;;;;;;11.19;100.00;100123.53;5082621;28;20036;-75
2022/12/31 04:24:57;;;;;;;10.23;3.28;;;;;;;11.26;100.00;100119.06;5081648;28;20033;-76
2022/12/31 04:27:22;;;;;;;8.82;3.22;;;;;;;11.35;100.00;100124.25;5084208;28;20028;-76
2022/12/31 04:29:47;;;;;;;8.90;2.97;;;;;;;11.45;100.00;100122.41;5084620;28;20031;-75
2022/12/31 04:32:13;;;;;;;12.27;3.00;;;;;;;11.56;100.00;100109.91;5081204;28;20372;-75
2022/12/31 04:34:38;;;;;;;11.18;3.20;;;;;;;11.65;100.00;100111.59;5085151;28;20410;-76
2022/12/31 04:37:03;;;;;;;12.38;3.30;;;;;;;11.69;100.00;100103.59;5084963;28;20032;-75
2022/12/31 04:39:29;;;;;;;17.77;3.33;;;;;;;11.80;100.00;100071.66;5082028;28;20040;-75
2022/12/31 04:41:54;;;;;;;13.02;3.20;;;;;;;11.89;100.00;100075.09;5083565;28;20031;-75
2022/12/31 04:44:20;;;;;;;11.77;3.30;;;;;;;12.00;100.00;100116.47;5080533;28;20112;-75
2022/12/31 04:46:45;;;;;;;14.35;3.30;;;;;;;12.03;100.00;100136.75;5076748;28;20029;-74
2022/12/31 04:49:10;;;;;;;13.00;3.00;;;;;;;12.08;100.00;100136.69;5084870;28;20163;-75
2022/12/31 04:51:36;;;;;;;13.20;3.20;;;;;;;12.13;100.00;100122.50;5082767;28;20032;-74
2022/12/31 04:54:03;;;;;;;11.90;2.90;;;;;;;12.19;100.00;100122.41;5084236;28;20039;-75
2022/12/31 04:56:30;;;;;;;11.43;3.08;;;;;;;12.26;100.00;100138.22;5082892;28;20029;-75
2022/12/31 04:58:56;;;;;;;13.50;3.08;;;;;;;12.30;100.00;100113.41;5081535;28;20055;-75
2022/12/31 05:01:21;;;;;;;12.25;2.90;;;;;;;12.32;100.00;100138.13;5083894;28;20032;-76
2022/12/31 05:03:47;;;;;;;13.20;2.88;;;;;;;12.36;100.00;100146.03;5080382;28;20029;-74
2022/12/31 05:06:19;;;;;;;15.45;2.75;;;;;;;12.43;100.00;100130.03;5083465;28;20036;-74
2022/12/31 05:08:45;;;;;;;12.30;2.60;;;;;;;12.49;100.00;100154.66;5080788;28;20078;-76
2022/12/31 05:11:10;;;;;;;9.13;2.40;;;;;;;12.54;100.00;100159.91;5083192;28;20032;-74
2022/12/31 05:13:36;;;;;;;9.60;2.45;;;;;;;12.48;100.00;100144.97;5081598;28;20016;-80
2022/12/31 05:16:02;;;;;;;12.50;2.60;;;;;;;12.49;100.00;100146.69;5082000;28;20028;-73
2022/12/31 05:18:28;;;;;;;9.02;2.50;;;;;;;12.48;100.00;100144.97;5083387;28;20516;-74
2022/12/31 05:20:54;;;;;;;8.23;2.30;;;;;;;12.53;100.00;100151.06;5084330;28;20124;-74
2022/12/31 05:23:20;;;;;;;8.43;2.35;;;;;;;12.51;100.00;100149.34;5087793;28;20026;-74
2022/12/31 05:25:46;;;;;;;9.43;2.35;;;;;;;12.59;100.00;100158.06;5084127;28;20426;-74
2022/12/31 05:28:12;;;;;;;6.88;2.20;;;;;;;12.60;100.00;100158.94;5086875;28;20103;-76
2022/12/31 05:30:37;;;;;;;7.35;2.30;;;;;;;12.67;100.00;100184.47;5085171;28;20128;-74
2022/12/31 05:33:03;;;;;;;7.82;2.10;;;;;;;12.71;100.00;100186.16;5085416;28;20063;-74
2022/12/31 05:35:28;;;;;;;9.55;2.33;;;;;;;12.69;100.00;100182.66;5086175;28;20024;-76
2022/12/31 05:37:54;;;;;;;10.32;2.20;;;;;;;12.69;100.00;100187.97;5084222;28;20028;-74
2022/12/31 05:40:19;;;;;;;7.40;2.20;;;;;;;12.67;100.00;100171.22;5087240;28;20036;-75
2022/12/31 05:42:45;;;;;;;8.38;2.10;;;;;;;12.67;100.00;100173.88;5083948;28;20070;-75
2022/12/31 05:45:14;;;;;;;8.55;2.15;;;;;;;12.67;100.00;100176.53;5086160;28;20039;-75
2022/12/31 05:47:40;;;;;;;8.15;2.10;;;;;;;12.64;100.00;100187.16;5084414;28;20470;-75
2022/12/31 05:50:07;;;;;;;9.00;2.10;;;;;;;12.71;100.00;100199.41;5085639;28;20078;-76
2022/12/31 05:52:32;;;;;;;7.55;2.10;;;;;;;12.71;100.00;100189.72;5085406;28;20044;-75
2022/12/31 05:54:57;;;;;;;5.95;2.00;;;;;;;12.69;100.00;100185.31;5084390;28;20060;-74
2022/12/31 05:57:23;;;;;;;7.22;2.03;;;;;;;12.67;100.00;100172.09;5086709;28;20420;-75
2022/12/31 05:59:48;;;;;;;4.47;2.00;;;;;;;12.72;100.00;100162.28;5083366;28;20411;-75
2022/12/31 06:02:14;;;;;;;8.77;2.10;;;;;;;12.74;100.00;100143.69;5086511;28;20124;-75
2022/12/31 06:04:39;;;;;;;8.02;2.10;;;;;;;12.77;100.00;100180.78;5084286;28;20043;-75
2022/12/31 06:07:04;;;;;;;8.57;1.90;;;;;;;12.78;100.00;100171.91;5067186;28;20033;-75
2022/12/31 06:09:30;;;;;;;4.93;2.00;;;;;;;12.87;100.00;100174.44;5085443;28;20484;-74
2022/12/31 06:11:55;;;;;;;7.40;1.90;;;;;;;12.96;100.00;100183.13;5083854;28;20033;-75
2022/12/31 06:14:20;;;;;;;7.88;1.88;;;;;;;13.12;100.00;100195.28;5086522;28;20482;-75
2022/12/31 06:16:46;;;;;;;7.18;1.90;;;;;;;13.12;100.00;100200.56;5083000;28;20532;-76
2022/12/31 06:19:11;;;;;;;3.83;1.65;;;;;;;13.24;100.00;100189.75;5067753;28;20059;-75
2022/12/31 06:21:36;;;;;;;6.65;1.90;;;;;;;13.30;100.00;100203.81;5084180;28;20119;-76
2022/12/31 06:24:02;;;;;;;10.10;2.00;;;;;;;13.24;100.00;100200.34;5084450;28;20040;-75
2022/12/31 06:26:27;;;;;;;7.60;1.85;;;;;;;13.33;100.00;100201.97;5085368;28;20058;-75
2022/12/31 06:28:53;;;;;;;4.75;1.73;;;;;;;13.46;100.00;100208.00;5082893;28;20029;-75
2022/12/31 06:31:18;;;;;;;6.93;1.73;;;;;;;13.41;100.00;100229.31;5085848;28;20028;-75
2022/12/31 06:33:45;;;;;;;6.95;1.60;;;;;;;13.63;100.00;100206.81;5083012;28;20021;-75
2022/12/31 06:36:13;;;;;;;4.35;1.50;;;;;;;13.75;100.00;100241.13;5085267;28;20434;-75
2022/12/31 06:38:40;;;;;;;6.88;1.85;;;;;;;13.88;100.00;100217.88;5083922;28;20470;-75
2022/12/31 06:41:09;;;;;;;3.67;1.80;;;;;;;13.85;100.00;100208.16;5084471;28;20100;-75
2022/12/31 06:43:34;;;;;;;5.60;1.58;;;;;;;13.85;100.00;100193.97;5084244;28;20021;-75
2022/12/31 06:46:01;;;;;;;6.90;1.67;;;;;;;13.88;100.00;100220.53;5083612;28;20037;-75
2022/12/31 06:48:26;;;;;;;4.72;1.55;;;;;;;13.91;100.00;100208.03;5085198;28;20027;-74
2022/12/31 06:50:51;;;;;;;6.80;1.70;;;;;;;13.88;100.00;100208.09;5082558;28;20028;-75
2022/12/31 06:53:17;;;;;;;5.72;1.77;;;;;;;13.95;100.00;100212.38;5085928;28;20035;-74
2022/12/31 06:55:42;;;;;;;6.63;1.70;;;;;;;14.02;100.00;100225.53;5082869;28;20032;-73
2022/12/31 06:58:12;;;;;;;6.35;1.50;;;;;;;14.20;100.00;100203.03;5084413;28;20031;-74
2022/12/31 07:00:45;;;;;;;8.73;1.90;;;;;;;14.21;100.00;100226.94;5083615;28;20036;-74
2022/12/31 07:03:16;;;;;;;8.15;1.60;;;;;;;14.28;100.00;100204.66;5084762;28;20025;-74
2022/12/31 07:05:57;;;;;;;7.68;1.70;;;;;;;14.27;100.00;100200.22;5082627;28;20500;-76
2022/12/31 07:08:33;;;;;;;8.40;1.80;;;;;;;14.20;100.00;100214.56;5078990;28;20020;-75
2022/12/31 07:11:22;;;;;;;7.25;1.80;;;;;;;14.34;100.00;100202.75;5084680;28;20081;-74
2022/12/31 07:14:22;;;;;;;6.70;1.70;;;;;;;14.39;100.00;100214.19;5077906;28;20029;-74
2022/12/31 07:17:26;;;;;;;9.45;1.95;;;;;;;14.32;100.00;100197.47;5077654;28;20037;-74
2022/12/31 07:20:00;;;;;;;4.93;1.60;;;;;;;14.23;100.00;100232.22;5078026;28;20141;-80
2022/12/31 07:22:26;;;;;;;9.95;1.90;;;;;;;14.25;100.00;100223.28;5079486;28;20037;-74
2022/12/31 07:24:52;;;;;;;7.63;1.88;;;;;;;14.29;100.00;100219.66;5085298;28;20039;-75
2022/12/31 07:27:33;;;;;;;6.07;1.80;;;;;;;14.39;100.00;100214.19;5077748;28;20036;-75
2022/12/31 07:30:08;;;;;;;9.32;2.00;;;;;;;14.46;100.00;100210.47;5080039;28;20021;-75
2022/12/31 07:32:36;;;;;;;8.57;2.00;;;;;;;14.53;100.00;100230.69;5083524;28;20045;-75
2022/12/31 07:35:16;;;;;;;8.07;1.92;;;;;;;14.71;100.00;100244.53;5082652;28;20548;-75
2022/12/31 07:38:36;;;;;;;7.45;2.22;;;;;;;14.86;100.00;100222.91;5082137;28;20107;-76
2022/12/31 07:41:35;;;;;;;9.63;1.90;;;;;;;14.77;100.00;100233.78;4970408;28;20026;-75
2022/12/31 07:44:25;;;;;;;7.93;2.08;;;;;;;14.74;100.00;100224.06;4969695;28;20094;-75
2022/12/31 07:46:56;;;;;;;7.50;1.90;;;;;;;14.64;100.00;100239.34;5065256;28;20052;-75
2022/12/31 07:49:23;;;;;;;6.30;1.95;;;;;;;14.68;100.00;100220.66;5074499;28;20036;-78
2022/12/31 07:51:49;;;;;;;10.60;2.30;;;;;;;14.26;100.00;100224.19;5077326;28;20028;-83
2022/12/31 07:54:14;;;;;;;7.93;1.90;;;;;;;13.87;100.00;100234.69;5082352;28;20458;-81
2022/12/31 07:56:41;;;;;;;7.47;2.10;;;;;;;13.72;100.00;100217.28;5073983;28;20486;-81
2022/12/31 07:59:31;;;;;;;10.80;2.22;;;;;;;13.64;100.00;100235.13;5070502;28;20029;-82
2022/12/31 08:02:05;;;;;;;6.70;2.00;;;;;;;13.48;100.00;100219.44;5071758;28;20035;-77
2022/12/31 08:04:52;;;;;;;10.35;2.10;;;;;;;13.54;100.00;100253.88;5071045;28;20021;-78
2022/12/31 08:07:24;;;;;;;10.35;2.20;;;;;;;13.47;100.00;100249.56;5070268;28;20031;-83
2022/12/31 08:10:21;;;;;;;7.85;2.10;;;;;;;13.47;100.00;100264.59;5071611;28;20102;-80
2022/12/31 08:12:48;;;;;;;9.32;2.20;;;;;;;13.41;100.00;100268.25;5072976;28;20443;-92
2022/12/31 08:15:17;;;;;;;11.20;2.42;;;;;;;13.38;100.00;100281.56;5073857;28;20467;-83
2022/12/31 08:17:43;;;;;;;11.02;2.13;;;;;;;13.22;100.00;100284.44;5075423;28;20110;-84
2022/12/31 08:20:14;;;;;;;9.32;2.22;;;;;;;13.19;100.00;100297.78;5073913;28;20487;-83
2022/12/31 08:23:00;;;;;;;8.80;2.25;;;;;;;13.19;100.00;100297.78;5070238;28;20394;-80
2022/12/31 08:25:34;;;;;;;9.05;2.20;;;;;;;13.13;100.00;100295.19;5072011;28;20047;-83
2022/12/31 08:28:00;;;;;;;8.63;2.13;;;;;;;13.20;100.00;100357.03;5072173;28;20029;-81
2022/12/31 08:30:49;;;;;;;11.18;2.05;;;;;;;13.28;100.00;100325.06;5074458;28;20105;-87
2022/12/31 08:33:59;;;;;;;5.28;1.95;;;;;;;13.46;100.00;100327.47;5077184;28;20534;-86
2022/12/31 08:36:45;;;;;;;9.15;2.20;;;;;;;13.49;100.00;100347.78;5077732;28;20033;-79
2022/12/31 08:39:22;;;;;;;7.50;1.95;;;;;;;13.58;100.00;100353.81;5076071;28;20059;-76
2022/12/31 08:41:52;;;;;;;7.30;2.10;;;;;;;13.62;100.00;100367.94;5079369;28;20021;-81
2022/12/31 08:44:32;;;;;;;9.15;2.00;;;;;;;13.52;100.00;100367.19;5078339;28;20096;-80
2022/12/31 08:47:16;;;;;;;9.88;2.30;;;;;;;13.34;100.00;100375.38;5077351;28;20047;-82
2022/12/31 08:49:42;;;;;;;9.95;2.38;;;;;;;13.32;100.00;100383.38;5080847;28;20041;-80
2022/12/31 08:52:27;;;;;;;9.82;2.40;;;;;;;13.35;100.00;100380.75;5080893;28;20029;-72
2022/12/31 08:54:53;;;;;;;12.20;2.35;;;;;;;13.34;100.00;100367.41;5074419;28;20040;-72
2022/12/31 08:57:32;;;;;;;8.35;2.20;;;;;;;13.42;100.00;100381.50;5077919;28;20020;-73
2022/12/31 09:00:11;;;;;;;7.07;2.00;;;;;;;13.62;100.00;100401.59;5079984;28;20029;-72
2022/12/31 09:03:01;;;;;;;9.45;2.50;;;;;;;13.69;100.00;100397.91;5081531;28;20032;-72
2022/12/31 09:05:41;;;;;;;8.27;2.13;;;;;;;13.60;100.00;100405.13;5073642;28;20040;-84
2022/12/31 09:08:20;;;;;;;9.82;2.70;;;;;;;13.64;100.00;100413.06;5076147;28;20039;-84
2022/12/31 09:10:56;;;;;;;9.07;2.10;;;;;;;13.69;100.00;100437.75;5081121;28;20550;-91
2022/12/31 09:13:30;;;;;;;9.80;2.20;;;;;;;13.63;100.00;100424.56;5075360;28;20466;-91
2022/12/31 09:16:06;;;;;;;11.07;2.25;;;;;;;13.42;100.00;100421.31;5069201;28;20082;-87
2022/12/31 09:18:37;;;;;;;9.02;2.10;;;;;;;13.41;100.00;100448.75;5089133;28;20112;-87
2022/12/31 09:21:02;;;;;;;10.77;2.40;;;;;;;13.21;100.00;100475.56;5074842;28;20070;-79
2022/12/31 09:23:28;;;;;;;12.25;2.80;;;;;;;13.00;100.00;100466.94;5060466;28;20033;-81
2022/12/31 09:25:54;;;;;;;12.70;2.75;;;;;;;12.88;100.00;100456.47;5078608;28;20057;-79
2022/12/31 09:28:52;;;;;;;13.35;2.70;;;;;;;12.74;100.00;100472.53;5075565;28;20061;-85
2022/12/31 09:31:44;;;;;;;11.55;2.83;;;;;;;12.79;100.00;100464.56;5078002;28;20016;-90
2022/12/31 09:34:40;;;;;;;11.45;2.58;;;;;;;12.75;100.00;100462.81;5076603;28;20060;-83
2022/12/31 09:37:14;;;;;;;10.02;2.80;;;;;;;12.78;100.00;100466.31;5076786;28;20055;-80
2022/12/31 09:39:42;;;;;;;13.43;2.90;;;;;;;12.80;100.00;100475.13;5079356;28;20024;-83
2022/12/31 09:42:10;;;;;;;9.90;2.70;;;;;;;12.80;100.00;100468.94;5081568;28;20031;-81
2022/12/31 09:45:06;;;;;;;11.27;3.00;;;;;;;12.76;100.00;100470.75;5081485;28;20481;-82
2022/12/31 09:48:02;;;;;;;10.15;3.00;;;;;;;12.85;100.00;100470.66;5077337;28;20098;-81
2022/12/31 09:50:51;;;;;;;12.02;2.83;;;;;;;12.97;100.00;100476.72;5070705;28;20032;-82
2022/12/31 09:53:32;;;;;;;10.15;2.90;;;;;;;13.00;100.00;100469.59;5068735;28;20028;-75
2022/12/31 09:56:03;;;;;;;11.50;2.90;;;;;;;12.99;100.00;100469.59;5084176;28;20029;-75
2022/12/31 09:58:37;;;;;;;12.05;2.85;;;;;;;13.09;100.00;100479.22;5077965;28;20100;-74
2022/12/31 10:01:21;;;;;;;12.52;2.90;;;;;;;13.11;100.00;100488.06;5079392;28;20031;-81
2022/12/31 10:03:55;;;;;;;14.35;3.10;;;;;;;13.15;100.00;100480.91;5076285;28;20025;-75
2022/12/31 10:06:48;;;;;;;10.93;2.60;;;;;;;13.29;100.00;100478.13;5075362;28;20028;-75
2022/12/31 10:09:19;;;;;;;11.18;2.70;;;;;;;13.39;100.00;100467.38;5079721;28;20028;-75
2022/12/31 10:11:57;;;;;;;8.05;2.58;;;;;;;13.43;100.00;100492.13;5079535;28;20027;-75
2022/12/31 10:14:40;;;;;;;10.52;2.47;;;;;;;13.41;100.00;100488.59;5081575;28;20025;-75
2022/12/31 10:17:47;;;;;;;12.57;2.83;;;;;;;13.31;100.00;100492.22;5083656;28;20040;-75
2022/12/31 10:20:37;;;;;;;15.10;3.20;;;;;;;13.31;100.00;100473.66;5019588;28;20099;-75
2022/12/31 10:23:34;;;;;;;8.52;2.65;;;;;;;13.32;100.00;100497.50;5084480;28;20043;-75
2022/12/31 10:26:08;;;;;;;10.45;2.60;;;;;;;13.38;100.00;100475.34;5065368;28;20024;-75
2022/12/31 10:28:52;;;;;;;10.35;2.40;;;;;;;13.39;100.00;100493.06;5083910;28;20024;-75
2022/12/31 10:31:53;;;;;;;13.25;2.78;;;;;;;13.41;100.00;100459.38;5080247;28;20155;-75
2022/12/31 10:34:29;;;;;;;13.48;2.70;;;;;;;13.54;100.00;100444.16;5074202;28;20045;-78
2022/12/31 10:37:04;;;;;;;11.10;2.65;;;;;;;13.57;100.00;100468.91;5084900;28;20462;-75
2022/12/31 10:39:50;;;;;;;11.60;2.80;;;;;;;13.66;100.00;100451.06;5085058;28;20024;-75
2022/12/31 10:42:50;;;;;;;12.85;2.60;;;;;;;13.69;100.00;100451.03;5079495;28;20052;-76
2022/12/31 10:45:37;;;;;;;13.30;2.63;;;;;;;13.79;100.00;100458.00;5079376;28;20475;-75
2022/12/31 10:48:25;;;;;;;14.68;2.70;;;;;;;13.85;100.00;100457.88;5083680;28;20056;-75
2022/12/31 10:51:34;;;;;;;12.95;2.50;;;;;;;13.89;100.00;100475.53;5080261;28;20020;-74
2022/12/31 10:54:34;;;;;;;11.30;2.70;;;;;;;13.78;100.00;100474.81;5056500;28;20609;-75
2022/12/31 10:57:28;;;;;;;13.95;2.80;;;;;;;13.76;100.00;100468.63;5082983;28;20107;-75
2022/12/31 11:00:05;;;;;;;11.40;2.55;;;;;;;13.95;100.00;100493.19;5081265;28;20390;-75
2022/12/31 11:02:39;;;;;;;10.48;2.38;;;;;;;13.99;100.00;100476.25;5083504;28;20098;-75
2022/12/31 11:05:45;;;;;;;10.93;2.40;;;;;;;14.13;100.00;100494.66;5084726;28;20111;-75
2022/12/31 11:08:13;;;;;;;12.73;2.60;;;;;;;14.20;100.00;100488.34;5085550;28;20032;-75
2022/12/31 11:10:41;;;;;;;14.05;2.60;;;;;;;14.23;100.00;100487.44;5082487;28;20078;-76
2022/12/31 11:13:38;;;;;;;12.55;2.67;;;;;;;14.21;100.00;100503.41;5084789;28;20074;-75
2022/12/31 11:16:27;;;;;;;10.90;2.60;;;;;;;14.26;100.00;100495.34;5042363;28;20446;-75
2022/12/31 11:19:54;;;;;;;11.73;2.30;;;;;;;14.23;100.00;100496.25;5062241;28;20115;-75
2022/12/31 11:22:24;;;;;;;12.90;2.70;;;;;;;14.54;100.00;100492.22;4997326;28;20049;-75
2022/12/31 11:24:59;;;;;;;11.88;2.47;;;;;;;14.62;100.00;100488.53;5066820;28;20039;-75
2022/12/31 11:27:39;;;;;;;13.82;2.50;;;;;;;14.69;100.00;100497.28;5084131;28;20512;-75
2022/12/31 11:30:20;;;;;;;10.55;2.30;;;;;;;14.81;100.00;100504.19;5084414;28;20040;-75
2022/12/31 11:32:59;;;;;;;9.80;2.50;;;;;;;15.00;100.00;100510.03;5078290;28;20060;-75
2022/12/31 11:35:36;;;;;;;13.18;2.80;;;;;;;15.04;100.00;100511.69;5080897;28;20029;-75
2022/12/31 11:38:20;;;;;;;12.38;2.40;;;;;;;15.16;100.00;100492.84;5081050;28;20059;-74
2022/12/31 11:41:06;;;;;;;11.60;2.50;;;;;;;15.18;100.00;100511.44;5078873;28;20032;-75
2022/12/31 11:43:39;;;;;;;13.07;2.58;;;;;;;15.01;100.00;100525.06;5075729;28;20051;-74
2022/12/31 11:46:28;;;;;;;13.40;2.40;;;;;;;14.74;100.00;100508.72;5080485;28;20031;-75